Brazoria County Airport
KLBX : now visible

Airfield :











YOU CAN JOIN US ON...

 
LOGIN :

Register | Disclaimer

   EN    FR    IT 

 









Legend :    VFR   Marginal VFR   IFR   Intensive IFR   Very Intensive IFR
Visi :
Ceiling :
>= 8 km
>= 3000ft
5 to 8 km
1000 to 3000 ft
1500m to 5 km
500 to 1000 ft
800 to 1500m
200 to 500 ft
< 800m
< 200 ft
Symbols :   Thunderstorms  Fog  Heavy snow  Heavy precipitations  Wind > 20 kt






- Airport Elevation : 25 ft


KLBX - Brazoria County

CURRENT METAR :
  • 282127Z AUTO 30004KT 10SM FEW025 BKN035 OVC044 18/17 A2982 RMK AO2 RAE08 P0000 T01830167

EXPIRED METARs :
  • 282100Z AUTO 00000KT 3SM -RA BR FEW008 BKN015 OVC042 18/17 A2982 RMK AO2 P0000 T01780172
  • 282053Z AUTO VRB03KT 1 1/4SM +RA BR FEW008 BKN014 OVC041 18/17 A2983 RMK AO2 SLP100 P0021 60023 T01780167 55018
  • 282044Z AUTO VRB04KT 1SM +RA BR SCT010 BKN014 OVC035 18/16 A2983 RMK AO2 P0016 T01780161
  • 281953Z AUTO 13009KT 10SM -RA FEW023 SCT039 OVC048 18/16 A2981 RMK AO2 SLP095 P0002 T01830161
  • 281853Z AUTO 13014G23KT 9SM -RA SCT026 SCT039 OVC065 19/15 A2986 RMK AO2 PK WND 12026/1802 RAB53 SLP110 P0000 T01890150

TAF KLBX
Valid from the 28 at 20:00 until the 29 at 18:00 UTC


281931Z 2820/2918 13014G20KT P6SM VCSH FEW007 SCT050 BKN080
TEMPO 2820/2822 3SM TSRA BR BKN015 BKN035CB
FM282200 18010KT P6SM VCSH SCT018 BKN025
FM290000 23008KT P6SM SCT020
FM290400 29010KT P6SM SCT035
FM291500 32013G20KT P6SM BKN050



MET'MAP, your aeronautical weather chart ! - Copyright ORBIFLY December 2007 - Disclaimer

ORBIFLY MET'MAP TEAM :

Programming & Development : Alexandra Zaïnal
Concept & original design : Baudouin d'Aumeries
Assistance for programming : Marc-Olivier Méhu
Technical & hardware support : Manuel Goepfert

Contact : metmap@orbifly.com




SOURCES & CREDITS :

   NOAA       Earth
Advisory